Aérodrome :
LOGIN :

S'inscrire | Disclaimer

   EN    FR    IT 

 










Légende :    VFR   VFR Marginal   IFR   IFR Intensif   IFR Très Intensif
Visi : 
Plafond : 
>= 8 km
>= 3000ft
5 à 8 km
1000 à 3000 ft
1500m à 5 km
500 à 1000 ft
800 à 1500m
200 à 500 ft
< 800m
< 200 ft
Symboles :   Orages  Brouillard  Fortes neiges  Fortes précipitations  Vent > 20 kt
SIGMETs :   Divers  Orages  Givrage  Turbulence  Onde Orograph.  Cendres Volcan.







- Altitude de l'aérodrome : 433 ft
- Voir les cartes d'approche


LFOC - Chateaudun

DERNIER METAR :
  • 230800Z AUTO 31008KT 9999 SCT021 OVC041 19/13 Q1021 NOSIG

METARs EXPIRÉS :
  • 230730Z AUTO 31005KT 260V360 9999 SCT020 OVC041 19/14 Q1020 NOSIG
  • 230700Z AUTO 32004KT 260V360 9999 OVC040 19/14 Q1020 NOSIG
  • 230630Z AUTO 32005KT 260V360 9999 OVC039 18/13 Q1020 NOSIG
  • 230600Z AUTO 31007KT 9999 FEW017 OVC038 18/13 Q1020 NOSIG
  • 230530Z AUTO 32004KT 290V350 9999 BKN015 OVC035 18/15 Q1019 NOSIG

TAF AMD TAF LFOC
Valide du 23 à 04h jusqu'au 24 à 03h UTC


230427Z 2304/2403 34005KT 9999 OVC030
BECMG 2306/2308 27012KT
BECMG 2321/2323 34005KT
Pas de NOTAMs connus pour ce terrain.



MET'MAP, la Météo Aéronautique d'un coup d'oeil ! - Copyright ORBIFLY Décembre 2007 - Disclaimer

ORBIFLY MET'MAP TEAM :

Programmation & Développement : Alexandra Zaïnal
Conception & Développement : Baudouin d'Aumeries
Co-Programmation & Développement : Marc-Olivier Méhu
Soutien technique & logistique : Manuel Goepfert

Contact : metmap@orbifly.com




SOURCES & CREDITS :

   NOAA